This is the latest recevied weather packets stored in our database for station/object KB2SKP. If no packets are shown the sender has not sent any weather packets the latest 10 day(s).
| Time | Temp. | Humidity | Pressure | Rain* | Wind** | Luminosity | Snow |
|---|---|---|---|---|---|---|---|
| 1777558839 | 15.56° C | 72% | 1005.5 hPa | 0 mm | - | 85 W/m² | - |
| 1777558231 | 15° C | 78% | 1005.2 hPa | 0 mm | - | 104 W/m² | - |
| 1777557927 | 15° C | 81% | 1005.3 hPa | 0 mm | - | 104 W/m² | - |
| 1777557624 | 15° C | 83% | 1005.1 hPa | 0 mm | - | 105 W/m² | - |
| 1777557320 | 14.44° C | 84% | 1005.3 hPa | 0 mm | - | 83 W/m² | - |
| 1777557017 | 14.44° C | 85% | 1005.4 hPa | 0 mm | - | 78 W/m² | - |
| 1777556109 | 14.44° C | 90% | 1005.4 hPa | 0 mm | - | 96 W/m² | - |
| 1777555805 | 13.89° C | 89% | 1005.3 hPa | 0 mm | - | 82 W/m² | - |
| 1777555500 | 13.89° C | 89% | 1005.1 hPa | 0 mm | - | 54 W/m² | - |
| 1777555196 | 13.33° C | 91% | 1005.1 hPa | 0 mm | - | 62 W/m² | - |
| 1777554894 | 12.78° C | 92% | 1004.7 hPa | 0.51 mm | - | 69 W/m² | - |
| 1777554591 | 12.78° C | 96% | 1005 hPa | 0.51 mm | - | 87 W/m² | - |
| 1777552769 | 12.78° C | 98% | 1004.8 hPa | 0 mm | - | 52 W/m² | - |
| 1777552464 | 12.78° C | 98% | 1004.7 hPa | 0 mm | - | 29 W/m² | - |
| 1777552161 | 12.78° C | 98% | 1004.9 hPa | 0 mm | - | 27 W/m² | - |
| 1777551858 | 12.78° C | 98% | 1004.9 hPa | 0 mm | - | 26 W/m² | - |
| 1777551555 | 12.78° C | 98% | 1004.8 hPa | 0 mm | - | 22 W/m² | - |
| 1777550949 | 12.22° C | 98% | 1004.7 hPa | 0 mm | - | 28 W/m² | - |
| 1777550646 | 12.78° C | 98% | 1004.9 hPa | 0 mm | - | 20 W/m² | - |
| 1777550038 | 12.78° C | 98% | 1004.9 hPa | 0 mm | - | 30 W/m² | - |
| 1777548828 | 12.22° C | 99% | 1004.7 hPa | 0 mm | - | 44 W/m² | - |
| 1777548526 | 11.67° C | 99% | 1004.4 hPa | 0 mm | - | 37 W/m² | - |
| 1777548222 | 11.67° C | 99% | 1004.5 hPa | 0 mm | - | 33 W/m² | - |
| 1777547919 | 11.67° C | 98% | 1004.4 hPa | 0 mm | - | 25 W/m² | - |
| 1777545796 | 10° C | 98% | 1004.1 hPa | 0 mm | - | 5 W/m² | - |
* Rain latest hour (hover to see other rain measurements)
** Current wind speed in m/s (hover to see current wind gust speed)